OH41 weather

Public forecast

Using degrees Fahrenheit for public forecast. Weather courtesy of forecast.io.

Closest aviation weather report (METAR) to Cutler Field

Closest report is Delaware Municipal Airport, 5.2 nm (9.6 km) N. Retrieved 2020/08/12 15:15 UTC (5 minutes ago):

KDLZ 121515Z AUTO 00000KT 10SM CLR 26/18 A3011 RMK AO2

Closest aviation forecast (TAF) to Cutler Field

Closest forecast is John Glenn Columbus International Airport, 15.5 nm (28.7 km) SE. Retrieved 2020/08/12 12:48 UTC (3 hours ago):

TAF KCMH 121146Z 1212/1312 04005KT P6SM SCT035 BKN250